Time;durP1;ratioP1;P1;durP2;ratioP2;P2;SDS_P1;SDS_P2;PMS_P1;PMS_P2;Temp;Humidity;BMP_temperature;BMP_pressure;BME280_temperature;BME280_humidity;BME280_pressure;Samples;Min_cycle;Max_cycle;Signal;HPM_P1;HPM_P2
2022/12/25 00:01:15;;;;;;;0.65;0.43;;;20.50;55.30;;;;;;5111047;28;20050;-46
2022/12/25 00:03:44;;;;;;;0.63;0.20;;;20.50;55.20;;;;;;5074761;28;20778;-47
2022/12/25 00:06:11;;;;;;;0.57;0.40;;;20.50;55.20;;;;;;5069921;28;20127;-45
2022/12/25 00:08:40;;;;;;;0.20;0.10;;;20.50;55.20;;;;;;5070024;28;20129;-45
2022/12/25 00:11:11;;;;;;;0.40;0.30;;;20.50;55.20;;;;;;5069752;28;20032;-46
2022/12/25 00:13:38;;;;;;;0.20;0.10;;;20.50;55.20;;;;;;5069899;28;20052;-47
2022/12/25 00:16:06;;;;;;;2.75;0.65;;;20.50;55.20;;;;;;5070103;28;20040;-47
2022/12/25 00:18:34;;;;;;;0.20;0.20;;;20.50;55.20;;;;;;5081808;28;20154;-47
2022/12/25 00:21:05;;;;;;;0.45;0.40;;;20.40;55.20;;;;;;5088406;28;20052;-49
2022/12/25 00:23:33;;;;;;;0.60;0.20;;;20.50;55.20;;;;;;5090198;28;20047;-45
2022/12/25 00:26:05;;;;;;;1.13;0.20;;;20.50;55.30;;;;;;5089712;28;20040;-47
2022/12/25 00:28:32;;;;;;;0.52;0.30;;;20.50;55.20;;;;;;5089624;28;20044;-45
2022/12/25 00:30:59;;;;;;;0.15;0.15;;;20.40;55.20;;;;;;5089957;28;20058;-46
2022/12/25 00:33:26;;;;;;;0.88;0.10;;;20.40;55.20;;;;;;5089905;28;20044;-45
2022/12/25 00:36:00;;;;;;;0.22;0.22;;;20.40;55.80;;;;;;5089535;28;20058;-47
2022/12/25 00:38:29;;;;;;;0.55;0.28;;;20.40;55.20;;;;;;5089779;28;20036;-47
2022/12/25 00:40:56;;;;;;;0.20;0.10;;;20.40;55.20;;;;;;5089652;28;20056;-46
2022/12/25 00:43:24;;;;;;;0.63;0.20;;;20.40;55.20;;;;;;5089615;28;20040;-48
2022/12/25 00:45:55;;;;;;;0.20;0.20;;;20.40;55.20;;;;;;5089770;28;20050;-48
2022/12/25 00:48:22;;;;;;;0.52;0.52;;;20.40;55.20;;;;;;5089973;28;20046;-46
2022/12/25 00:50:53;;;;;;;0.30;0.17;;;20.40;55.20;;;;;;5081333;28;20048;-49
2022/12/25 00:53:20;;;;;;;1.35;0.25;;;20.50;55.30;;;;;;5069286;28;20048;-46
2022/12/25 00:55:52;;;;;;;0.70;0.20;;;20.40;55.20;;;;;;5069177;28;20156;-48
2022/12/25 00:58:20;;;;;;;0.75;0.30;;;20.40;55.20;;;;;;5069068;28;20063;-45
2022/12/25 01:00:48;;;;;;;0.90;0.17;;;20.40;55.20;;;;;;5080518;28;20158;-46
2022/12/25 01:03:16;;;;;;;0.45;0.30;;;20.40;55.20;;;;;;5089111;28;20040;-45
2022/12/25 01:05:44;;;;;;;0.45;0.20;;;20.40;55.20;;;;;;5088819;28;20063;-46
2022/12/25 01:08:11;;;;;;;0.40;0.20;;;20.50;55.20;;;;;;5089415;28;20456;-46
2022/12/25 01:10:37;;;;;;;0.10;0.10;;;20.40;55.20;;;;;;5088915;28;20886;-47
2022/12/25 01:13:05;;;;;;;0.40;0.20;;;20.50;55.20;;;;;;5088657;28;20143;-46
2022/12/25 01:15:32;;;;;;;0.15;0.10;;;20.40;55.20;;;;;;5089211;28;20040;-46
2022/12/25 01:17:59;;;;;;;0.30;0.20;;;20.50;55.20;;;;;;5088689;28;20044;-47
2022/12/25 01:20:26;;;;;;;0.90;0.40;;;20.50;55.20;;;;;;5088220;28;20040;-49
2022/12/25 01:22:53;;;;;;;0.68;0.20;;;20.40;55.10;;;;;;5088952;28;20089;-47
2022/12/25 01:25:21;;;;;;;0.28;0.28;;;20.50;55.20;;;;;;5088594;28;20453;-49
2022/12/25 01:27:48;;;;;;;1.45;0.17;;;20.50;55.20;;;;;;5088670;28;20086;-47
2022/12/25 01:30:16;;;;;;;0.32;0.32;;;20.50;55.20;;;;;;5088555;28;20047;-46
2022/12/25 01:32:43;;;;;;;0.52;0.20;;;20.50;55.20;;;;;;5088662;28;20151;-47
2022/12/25 01:35:10;;;;;;;1.25;0.20;;;20.50;55.20;;;;;;5088267;28;20040;-49
2022/12/25 01:37:38;;;;;;;0.73;0.50;;;20.40;55.70;;;;;;5091255;28;20048;-45
2022/12/25 01:40:06;;;;;;;1.20;0.93;;;20.50;55.20;;;;;;5096897;28;20051;-46
2022/12/25 01:42:33;;;;;;;0.28;0.17;;;20.50;55.20;;;;;;5088313;28;20067;-46
2022/12/25 01:45:39;;;;;;;0.30;0.20;;;20.40;55.10;;;;;;5088327;28;20036;-45
2022/12/25 01:48:15;;;;;;;0.20;0.20;;;20.50;55.10;;;;;;5088135;28;20040;-46
2022/12/25 01:50:48;;;;;;;1.15;0.20;;;20.50;55.30;;;;;;5089206;28;20128;-49
2022/12/25 01:53:16;;;;;;;0.68;0.20;;;20.40;55.20;;;;;;5107717;28;20096;-48
2022/12/25 01:55:48;;;;;;;0.63;0.15;;;20.40;55.20;;;;;;5108776;28;20043;-46
2022/12/25 01:58:16;;;;;;;0.30;0.20;;;20.50;55.30;;;;;;5107021;28;20115;-46
2022/12/25 02:00:43;;;;;;;0.40;0.30;;;20.40;55.20;;;;;;5108492;28;20044;-46
2022/12/25 02:03:11;;;;;;;1.25;0.30;;;20.40;55.20;;;;;;5107410;28;20031;-45
2022/12/25 02:05:39;;;;;;;0.85;0.30;;;20.40;55.20;;;;;;5108514;28;20036;-45
2022/12/25 02:08:09;;;;;;;0.47;0.10;;;20.50;55.30;;;;;;5108477;28;20036;-47
2022/12/25 02:10:37;;;;;;;0.20;0.20;;;20.40;55.20;;;;;;5092019;28;20435;-46
2022/12/25 02:13:05;;;;;;;0.95;0.30;;;20.40;55.20;;;;;;5087728;28;20056;-49
2022/12/25 02:15:47;;;;;;;0.10;0.10;;;20.40;55.30;;;;;;5087874;28;20143;-51
2022/12/25 02:18:22;;;;;;;0.10;0.10;;;20.50;55.30;;;;;;5106431;28;20116;-48
2022/12/25 02:21:08;;;;;;;2.92;0.30;;;20.40;55.30;;;;;;5067586;28;20056;-47
2022/12/25 02:23:58;;;;;;;0.28;0.10;;;20.40;55.20;;;;;;5067931;28;20076;-48
2022/12/25 02:26:50;;;;;;;0.22;0.22;;;20.40;55.30;;;;;;5085086;28;20062;-48
2022/12/25 02:29:24;;;;;;;0.73;0.10;;;20.40;55.30;;;;;;5087067;28;20043;-47
2022/12/25 02:31:59;;;;;;;1.58;0.30;;;20.40;55.40;;;;;;5085932;28;20590;-47
2022/12/25 02:34:33;;;;;;;0.30;0.30;;;20.40;55.40;;;;;;5087443;28;20036;-46
2022/12/25 02:37:06;;;;;;;0.15;0.10;;;20.40;55.30;;;;;;5086377;28;20127;-49
2022/12/25 02:40:00;;;;;;;0.45;0.15;;;20.40;55.30;;;;;;5087439;28;20060;-45
2022/12/25 03:07:57;;;;;;;1.48;0.10;;;20.40;55.50;;;;;;5087517;28;20075;-47
2022/12/25 03:13:13;;;;;;;0.40;0.20;;;20.40;55.50;;;;;;5003534;28;20076;-46
2022/12/25 03:18:38;;;;;;;0.90;0.20;;;20.40;55.50;;;;;;4929672;28;20086;-46
2022/12/25 03:26:55;;;;;;;0.40;0.30;;;20.40;55.50;;;;;;4946032;29;20786;-46
2022/12/25 03:32:29;;;;;;;0.65;0.10;;;20.30;55.50;;;;;;4888943;29;20125;-47
2022/12/25 03:35:24;;;;;;;0.20;0.10;;;20.30;55.50;;;;;;4889207;29;20053;-48
2022/12/25 04:36:38;;;;;;;0.30;0.30;;;20.40;55.80;;;;;;4968407;28;20058;-45
2022/12/25 04:39:05;;;;;;;1.90;1.77;;;20.30;55.80;;;;;;5026659;28;20061;-46
2022/12/25 04:41:33;;;;;;;2.30;0.80;;;20.40;55.80;;;;;;5026592;28;20073;-46
2022/12/25 04:44:00;;;;;;;1.40;0.88;;;20.40;55.80;;;;;;5026746;28;20180;-46
2022/12/25 04:46:28;;;;;;;2.63;0.63;;;20.40;55.80;;;;;;5026759;28;20053;-47
2022/12/25 04:48:55;;;;;;;1.85;1.02;;;20.40;55.70;;;;;;5044508;28;20079;-47
2022/12/25 04:51:24;;;;;;;0.50;0.50;;;20.40;55.70;;;;;;5069311;28;20474;-49
2022/12/25 04:53:52;;;;;;;2.00;1.10;;;20.40;55.70;;;;;;5069004;28;20402;-50
2022/12/25 04:56:20;;;;;;;2.53;0.80;;;20.40;55.70;;;;;;5069003;28;20076;-45
2022/12/25 04:58:49;;;;;;;1.30;1.00;;;20.40;55.70;;;;;;5083072;28;20044;-45
2022/12/25 05:01:16;;;;;;;2.03;1.23;;;20.40;55.60;;;;;;5089590;28;20473;-45
2022/12/25 05:03:43;;;;;;;4.93;0.98;;;20.40;55.60;;;;;;5089496;28;20040;-46
2022/12/25 05:06:10;;;;;;;4.45;0.75;;;20.50;55.70;;;;;;5089515;28;20116;-46
2022/12/25 05:08:37;;;;;;;1.75;1.05;;;20.50;55.70;;;;;;5089176;28;20914;-47
2022/12/25 05:11:09;;;;;;;1.23;0.57;;;20.40;55.60;;;;;;5089018;28;20145;-45
2022/12/25 05:13:37;;;;;;;1.10;0.95;;;20.50;55.60;;;;;;5089452;28;20040;-50
2022/12/25 05:16:07;;;;;;;3.40;1.05;;;20.50;55.70;;;;;;5089257;28;20040;-47
2022/12/25 05:18:34;;;;;;;4.00;1.35;;;20.50;55.70;;;;;;5088930;28;20071;-47
2022/12/25 05:21:01;;;;;;;1.20;0.77;;;20.50;55.70;;;;;;5087515;28;20043;-45
2022/12/25 05:23:28;;;;;;;3.40;0.60;;;20.50;55.70;;;;;;5089112;28;20048;-46
2022/12/25 05:25:55;;;;;;;1.17;0.52;;;20.50;55.60;;;;;;5088887;28;20052;-46
2022/12/25 05:28:23;;;;;;;1.02;0.70;;;20.50;55.60;;;;;;5089375;28;20093;-47
2022/12/25 05:30:50;;;;;;;1.38;0.60;;;20.50;56.20;;;;;;5088893;28;20040;-46
2022/12/25 05:33:18;;;;;;;0.68;0.50;;;20.50;55.60;;;;;;5088798;28;20583;-47
2022/12/25 05:35:45;;;;;;;1.65;0.65;;;20.50;55.60;;;;;;5088717;28;20040;-46
2022/12/25 05:38:12;;;;;;;1.15;0.75;;;20.50;55.60;;;;;;5088404;28;20426;-46
2022/12/25 05:40:40;;;;;;;0.63;0.30;;;20.50;55.60;;;;;;5088581;28;20079;-46
2022/12/25 05:43:08;;;;;;;2.05;0.60;;;20.50;55.60;;;;;;5088461;28;20040;-45
2022/12/25 05:45:35;;;;;;;0.70;0.50;;;20.50;55.60;;;;;;5088877;28;20071;-45
2022/12/25 05:48:02;;;;;;;1.20;0.28;;;20.50;55.60;;;;;;5089343;28;20043;-45
2022/12/25 05:50:30;;;;;;;0.60;0.60;;;20.50;55.60;;;;;;5108685;28;20055;-46
2022/12/25 05:53:04;;;;;;;0.93;0.40;;;20.50;55.60;;;;;;5107514;28;20066;-48
2022/12/25 05:55:34;;;;;;;0.35;0.22;;;20.50;55.60;;;;;;5108679;28;20405;-48
2022/12/25 05:58:01;;;;;;;1.15;0.40;;;20.50;55.60;;;;;;5108839;28;20040;-50
2022/12/25 06:00:28;;;;;;;2.70;1.48;;;20.50;55.60;;;;;;5108579;28;20071;-48
2022/12/25 06:02:55;;;;;;;1.25;0.50;;;20.50;55.60;;;;;;5108793;28;20460;-46
2022/12/25 06:05:22;;;;;;;0.30;0.30;;;20.50;55.60;;;;;;5108747;28;20733;-47
2022/12/25 06:07:51;;;;;;;1.58;0.40;;;20.50;55.60;;;;;;5108517;28;20054;-48
2022/12/25 06:10:18;;;;;;;1.08;0.20;;;20.60;55.70;;;;;;5094882;27;20079;-46
2022/12/25 06:12:45;;;;;;;0.75;0.50;;;20.50;55.60;;;;;;5088380;28;20046;-45
2022/12/25 06:15:12;;;;;;;0.82;0.82;;;20.50;56.20;;;;;;5088544;28;20117;-46
2022/12/25 06:17:39;;;;;;;3.35;0.68;;;20.50;55.60;;;;;;5087784;28;20040;-45
2022/12/25 06:20:07;;;;;;;1.08;0.40;;;20.50;55.60;;;;;;5087937;28;20127;-46
2022/12/25 06:22:34;;;;;;;1.17;0.40;;;20.50;55.60;;;;;;5088243;28;20528;-45
2022/12/25 06:25:03;;;;;;;1.58;1.42;;;20.50;55.60;;;;;;5086439;28;20087;-46
2022/12/25 06:27:30;;;;;;;2.80;0.82;;;20.60;55.70;;;;;;5088123;28;20032;-45
2022/12/25 06:29:57;;;;;;;0.20;0.20;;;20.50;55.60;;;;;;5086615;28;20477;-48
2022/12/25 06:32:24;;;;;;;1.10;0.50;;;20.60;55.60;;;;;;5067478;28;20047;-46
2022/12/25 06:34:51;;;;;;;0.77;0.28;;;20.60;55.70;;;;;;5067374;28;20123;-46
2022/12/25 06:37:18;;;;;;;0.38;0.38;;;20.50;55.60;;;;;;5067334;28;20044;-46
2022/12/25 06:39:46;;;;;;;3.97;0.38;;;20.60;55.60;;;;;;5075936;28;20040;-46
2022/12/25 06:42:15;;;;;;;1.80;0.77;;;20.60;55.60;;;;;;5088046;28;20040;-47
2022/12/25 06:44:43;;;;;;;3.72;0.47;;;20.60;55.70;;;;;;5087484;28;20151;-46
2022/12/25 06:47:10;;;;;;;1.10;0.20;;;20.60;55.60;;;;;;5085942;28;20134;-47
2022/12/25 06:49:37;;;;;;;1.92;0.30;;;20.60;55.60;;;;;;5087216;28;20044;-48
2022/12/25 06:52:04;;;;;;;0.85;0.25;;;20.50;55.60;;;;;;5086722;28;20036;-46
2022/12/25 06:54:31;;;;;;;0.30;0.30;;;20.60;55.60;;;;;;5087280;28;20087;-48
2022/12/25 06:56:58;;;;;;;1.00;0.13;;;20.60;55.60;;;;;;5087310;28;20432;-48
2022/12/25 06:59:27;;;;;;;1.25;0.65;;;20.60;55.60;;;;;;5085828;28;20040;-45
2022/12/25 07:01:56;;;;;;;0.85;0.85;;;20.60;55.60;;;;;;5087351;28;20047;-47
2022/12/25 07:04:30;;;;;;;1.20;0.60;;;20.60;55.60;;;;;;5087241;28;20097;-48
2022/12/25 07:06:57;;;;;;;1.58;0.47;;;20.60;55.60;;;;;;5086791;28;20051;-47
2022/12/25 07:09:25;;;;;;;0.95;0.30;;;20.60;55.60;;;;;;5087230;28;20058;-47
2022/12/25 07:11:52;;;;;;;0.77;0.30;;;20.60;55.60;;;;;;5087191;28;20119;-46
2022/12/25 07:14:21;;;;;;;1.17;0.10;;;20.60;55.60;;;;;;5087055;28;20139;-47
2022/12/25 07:16:50;;;;;;;1.70;0.22;;;20.60;55.60;;;;;;5087021;28;20524;-46
2022/12/25 07:19:18;;;;;;;0.85;0.32;;;20.60;55.60;;;;;;5080087;28;20041;-46
2022/12/25 07:21:46;;;;;;;1.20;0.45;;;20.60;55.60;;;;;;5066493;28;20044;-44
2022/12/25 07:24:17;;;;;;;1.20;0.30;;;20.60;55.60;;;;;;5067005;28;20048;-46
2022/12/25 07:26:44;;;;;;;0.65;0.57;;;20.60;55.60;;;;;;5087257;28;20048;-46
2022/12/25 07:29:11;;;;;;;0.20;0.15;;;20.60;55.60;;;;;;5086872;28;20067;-46
2022/12/25 07:31:38;;;;;;;3.75;0.35;;;20.60;55.70;;;;;;5086918;28;20044;-45
2022/12/25 07:34:07;;;;;;;2.47;0.50;;;20.60;55.60;;;;;;5086786;28;20044;-45
2022/12/25 07:36:34;;;;;;;0.63;0.10;;;20.60;55.60;;;;;;5086321;28;20488;-45
2022/12/25 07:39:01;;;;;;;0.60;0.40;;;20.60;55.60;;;;;;5086603;28;20138;-49
2022/12/25 07:41:28;;;;;;;0.20;0.20;;;20.60;55.60;;;;;;5086810;28;20067;-46
2022/12/25 07:44:13;;;;;;;2.35;0.73;;;20.60;55.60;;;;;;5085391;28;20094;-46
2022/12/25 07:46:40;;;;;;;1.90;0.20;;;20.50;56.10;;;;;;5087673;28;20048;-46
2022/12/25 07:49:08;;;;;;;0.50;0.17;;;20.60;55.60;;;;;;5066526;28;20127;-47
2022/12/25 07:51:35;;;;;;;0.75;0.20;;;20.60;55.60;;;;;;5066087;28;20131;-46
2022/12/25 07:54:02;;;;;;;0.43;0.15;;;20.60;55.60;;;;;;5066498;28;20052;-47
2022/12/25 07:56:29;;;;;;;0.47;0.30;;;20.60;55.50;;;;;;5066322;28;20076;-47
2022/12/25 07:58:57;;;;;;;1.10;0.20;;;20.60;55.50;;;;;;5066527;28;20055;-47
2022/12/25 08:01:25;;;;;;;0.40;0.40;;;20.60;55.60;;;;;;5069628;28;20048;-48
2022/12/25 08:03:54;;;;;;;0.50;0.30;;;20.60;55.50;;;;;;5070422;28;20043;-48
2022/12/25 08:06:28;;;;;;;3.58;1.23;;;20.60;55.50;;;;;;5069783;28;20428;-45
2022/12/25 08:08:55;;;;;;;1.38;0.20;;;20.60;55.50;;;;;;5072079;28;20131;-46
2022/12/25 08:11:22;;;;;;;0.35;0.10;;;20.60;55.50;;;;;;5090543;28;20044;-46
2022/12/25 08:13:50;;;;;;;0.63;0.10;;;20.60;55.50;;;;;;5090220;28;20121;-46
2022/12/25 08:16:17;;;;;;;0.57;0.30;;;20.60;55.50;;;;;;5092331;28;20044;-46
2022/12/25 08:18:44;;;;;;;0.30;0.20;;;20.60;55.50;;;;;;5090163;28;20050;-46
2022/12/25 08:21:14;;;;;;;0.30;0.20;;;20.60;55.50;;;;;;5089390;28;20044;-47
2022/12/25 08:23:44;;;;;;;1.75;0.30;;;20.60;55.50;;;;;;5090291;28;20087;-47
2022/12/25 08:26:13;;;;;;;0.20;0.10;;;20.60;55.40;;;;;;5090174;28;20793;-47
2022/12/25 08:28:41;;;;;;;0.88;0.28;;;20.60;55.40;;;;;;5090109;28;20185;-45
2022/12/25 08:31:10;;;;;;;1.65;0.20;;;20.60;55.40;;;;;;5089645;28;20052;-47
2022/12/25 08:33:37;;;;;;;1.55;0.17;;;20.60;55.40;;;;;;5089653;28;20047;-47
2022/12/25 08:36:07;;;;;;;1.90;0.20;;;20.60;55.40;;;;;;5088266;28;20070;-47
2022/12/25 08:38:34;;;;;;;0.80;0.73;;;20.60;55.40;;;;;;5089817;28;20051;-45
2022/12/25 08:41:03;;;;;;;0.28;0.10;;;20.60;55.40;;;;;;5089731;28;20127;-45
2022/12/25 08:43:30;;;;;;;1.73;0.20;;;20.60;55.40;;;;;;5089602;28;20101;-46
2022/12/25 08:45:57;;;;;;;2.17;0.30;;;20.60;55.40;;;;;;5089597;28;20028;-46
2022/12/25 08:48:24;;;;;;;1.00;0.30;;;20.60;55.40;;;;;;5088807;28;20147;-45
2022/12/25 08:50:53;;;;;;;1.13;0.35;;;20.60;55.40;;;;;;5087803;28;20135;-46
2022/12/25 08:53:21;;;;;;;1.88;0.20;;;20.60;55.40;;;;;;5089296;28;20048;-46
2022/12/25 08:55:48;;;;;;;1.40;0.10;;;20.60;55.30;;;;;;5089386;28;20048;-45
2022/12/25 08:58:17;;;;;;;3.05;0.32;;;20.60;55.30;;;;;;5073012;28;20579;-49
2022/12/25 09:00:44;;;;;;;0.35;0.35;;;20.60;55.40;;;;;;5068930;28;20045;-46
2022/12/25 09:03:11;;;;;;;0.43;0.43;;;20.60;55.40;;;;;;5068913;28;20098;-47
2022/12/25 09:05:38;;;;;;;0.22;0.20;;;20.60;55.40;;;;;;5069129;28;20153;-46
2022/12/25 09:08:05;;;;;;;0.20;0.10;;;20.60;55.50;;;;;;5068958;28;20049;-49
2022/12/25 09:10:35;;;;;;;1.85;0.15;;;20.60;55.50;;;;;;5084647;28;20036;-50
2022/12/25 09:13:02;;;;;;;1.23;0.30;;;20.60;55.50;;;;;;5089372;28;20044;-47
2022/12/25 09:15:31;;;;;;;0.32;0.22;;;20.60;55.50;;;;;;5089322;28;20036;-48
2022/12/25 09:17:58;;;;;;;1.08;0.20;;;20.60;55.50;;;;;;5088695;28;20044;-45
2022/12/25 09:20:25;;;;;;;0.20;0.20;;;20.60;55.50;;;;;;5087693;28;20290;-45
2022/12/25 09:22:52;;;;;;;1.95;0.80;;;20.60;55.50;;;;;;5088707;28;20086;-45
2022/12/25 09:25:19;;;;;;;1.27;0.20;;;20.50;55.50;;;;;;5088812;28;20048;-49
2022/12/25 09:27:46;;;;;;;1.90;0.20;;;20.50;55.50;;;;;;5089086;28;20101;-46
2022/12/25 09:30:14;;;;;;;1.52;0.20;;;20.60;55.50;;;;;;5088790;28;20036;-46
2022/12/25 09:32:42;;;;;;;1.10;1.00;;;20.60;55.50;;;;;;5088362;28;20048;-47
2022/12/25 09:35:09;;;;;;;0.30;0.28;;;20.60;55.50;;;;;;5088545;28;20051;-47
2022/12/25 09:37:36;;;;;;;1.02;0.52;;;20.50;55.40;;;;;;5088517;28;20614;-48
2022/12/25 09:40:04;;;;;;;1.25;0.20;;;20.50;55.40;;;;;;5088382;28;20052;-46
2022/12/25 09:42:33;;;;;;;0.40;0.20;;;20.60;55.50;;;;;;5088439;28;20132;-46
2022/12/25 09:45:04;;;;;;;0.30;0.15;;;20.60;55.50;;;;;;5088372;28;20040;-46
2022/12/25 09:47:35;;;;;;;0.30;0.17;;;20.60;55.50;;;;;;5067854;28;20041;-47
2022/12/25 09:50:10;;;;;;;4.38;0.40;;;20.60;55.40;;;;;;5071368;28;20047;-45
2022/12/25 09:52:43;;;;;;;0.25;0.10;;;20.60;55.50;;;;;;5088247;28;20132;-45
2022/12/25 09:55:13;;;;;;;0.32;0.32;;;20.60;55.50;;;;;;5088085;28;20080;-45
2022/12/25 09:57:40;;;;;;;0.40;0.40;;;20.60;55.50;;;;;;5089227;28;20144;-45
2022/12/25 10:00:15;;;;;;;1.95;0.10;;;20.50;55.40;;;;;;5088263;28;20093;-47
2022/12/25 10:03:12;;;;;;;0.82;0.30;;;20.60;55.40;;;;;;5087881;28;20054;-45
2022/12/25 10:06:16;;;;;;;1.02;0.30;;;20.60;55.30;;;;;;5081438;28;20052;-46
2022/12/25 10:09:05;;;;;;;2.28;0.43;;;20.60;55.30;;;;;;5088030;28;20093;-50
2022/12/25 10:11:47;;;;;;;1.25;0.65;;;20.60;55.30;;;;;;5079289;28;20044;-48
2022/12/25 10:14:23;;;;;;;0.65;0.20;;;20.60;55.30;;;;;;5088438;28;20093;-46
2022/12/25 10:17:03;;;;;;;1.27;0.40;;;20.60;55.20;;;;;;5086116;28;20128;-46
2022/12/25 10:19:45;;;;;;;0.98;0.20;;;20.60;55.20;;;;;;5087946;28;20044;-48
2022/12/25 10:22:20;;;;;;;2.25;0.25;;;20.60;55.20;;;;;;5087639;28;20079;-46
2022/12/25 10:24:51;;;;;;;1.95;0.75;;;20.60;55.20;;;;;;5087827;28;20044;-47
2022/12/25 10:27:27;;;;;;;0.40;0.30;;;20.60;55.20;;;;;;5087703;28;20100;-46
2022/12/25 10:29:54;;;;;;;0.47;0.47;;;20.60;55.10;;;;;;5087702;28;20487;-47
2022/12/25 10:32:22;;;;;;;0.57;0.10;;;20.60;55.10;;;;;;5087596;28;20569;-45
2022/12/25 10:34:49;;;;;;;1.20;0.35;;;20.60;55.00;;;;;;5081611;28;20067;-47
2022/12/25 10:37:18;;;;;;;2.95;0.28;;;20.60;55.10;;;;;;5067096;28;20033;-47
2022/12/25 10:39:45;;;;;;;0.52;0.10;;;20.60;55.00;;;;;;5074692;28;20152;-45
2022/12/25 10:42:28;;;;;;;0.55;0.52;;;20.60;55.00;;;;;;5087546;28;20032;-48
2022/12/25 10:44:56;;;;;;;2.17;0.32;;;20.60;54.90;;;;;;5087018;28;20508;-46
2022/12/25 10:47:26;;;;;;;1.08;0.38;;;20.60;54.90;;;;;;5087273;28;20043;-47
2022/12/25 10:49:54;;;;;;;0.35;0.15;;;20.60;54.80;;;;;;5087340;28;20123;-47
2022/12/25 10:52:24;;;;;;;2.78;0.22;;;20.60;54.80;;;;;;5087135;28;20035;-45
2022/12/25 10:54:52;;;;;;;0.22;0.22;;;20.60;54.90;;;;;;5087092;28;20080;-45
2022/12/25 10:57:21;;;;;;;1.15;0.20;;;20.60;54.80;;;;;;5086756;28;20048;-46
2022/12/25 10:59:50;;;;;;;0.20;0.20;;;20.60;54.90;;;;;;5086449;28;20394;-45
2022/12/25 11:02:22;;;;;;;0.75;0.25;;;20.60;55.00;;;;;;5087244;28;20071;-46
2022/12/25 11:04:51;;;;;;;0.63;0.30;;;20.70;54.90;;;;;;5085567;28;20055;-46
2022/12/25 11:07:25;;;;;;;0.57;0.30;;;20.70;54.80;;;;;;5086624;28;20062;-46
2022/12/25 11:09:53;;;;;;;0.90;0.30;;;20.70;54.80;;;;;;5087090;28;20046;-46
2022/12/25 11:12:24;;;;;;;0.32;0.28;;;20.70;54.80;;;;;;5087192;28;20051;-45
2022/12/25 11:14:55;;;;;;;1.70;0.90;;;20.70;54.60;;;;;;5086573;28;20050;-47
2022/12/25 11:17:25;;;;;;;5.55;0.73;;;20.70;54.50;;;;;;5086810;28;20572;-46
2022/12/25 11:19:54;;;;;;;2.00;0.30;;;20.70;54.40;;;;;;5086799;28;20139;-48
2022/12/25 11:22:23;;;;;;;2.20;0.30;;;20.70;54.30;;;;;;5085884;28;20424;-46
2022/12/25 11:24:51;;;;;;;1.98;0.50;;;20.70;54.20;;;;;;5070814;28;20036;-48
2022/12/25 11:27:23;;;;;;;0.98;0.20;;;20.70;54.70;;;;;;5087005;28;20067;-46
2022/12/25 11:29:53;;;;;;;1.98;0.30;;;20.70;54.10;;;;;;5087004;28;20039;-46
2022/12/25 11:32:25;;;;;;;0.57;0.25;;;20.70;54.20;;;;;;5086697;28;20044;-46
2022/12/25 11:34:53;;;;;;;0.98;0.30;;;20.70;54.20;;;;;;5087675;28;20205;-45
2022/12/25 11:37:24;;;;;;;0.60;0.30;;;20.70;54.10;;;;;;5090793;28;20047;-45
2022/12/25 11:39:52;;;;;;;1.10;0.40;;;20.70;54.20;;;;;;5089357;28;20455;-48
2022/12/25 11:42:25;;;;;;;2.08;0.30;;;20.80;54.30;;;;;;5090806;28;20593;-47
2022/12/25 11:44:57;;;;;;;1.30;0.22;;;20.70;54.80;;;;;;5091120;28;20496;-46
2022/12/25 11:47:29;;;;;;;1.17;0.30;;;20.70;54.30;;;;;;5090942;28;20500;-47
2022/12/25 11:50:00;;;;;;;0.93;0.52;;;20.70;54.30;;;;;;5106543;28;20043;-46
2022/12/25 11:52:34;;;;;;;0.50;0.22;;;20.70;54.90;;;;;;5110998;28;20504;-46
2022/12/25 11:55:07;;;;;;;1.67;0.40;;;20.70;54.30;;;;;;5110959;28;20050;-47
2022/12/25 11:57:35;;;;;;;0.88;0.30;;;20.70;54.30;;;;;;5110705;28;20072;-47
2022/12/25 12:00:08;;;;;;;3.03;0.25;;;20.70;54.30;;;;;;5110851;28;20039;-46
2022/12/25 12:02:38;;;;;;;1.38;0.60;;;20.70;54.30;;;;;;5111081;28;20075;-46
2022/12/25 12:05:21;;;;;;;2.20;0.32;;;20.70;54.30;;;;;;5110986;28;20119;-47
2022/12/25 12:07:59;;;;;;;0.60;0.20;;;20.70;54.10;;;;;;5108381;28;20040;-47
2022/12/25 12:10:34;;;;;;;1.33;0.40;;;20.80;54.20;;;;;;5084666;28;20695;-46
2022/12/25 12:13:13;;;;;;;0.73;0.73;;;20.70;54.70;;;;;;5069673;28;20044;-48
2022/12/25 12:15:43;;;;;;;0.38;0.30;;;20.70;54.00;;;;;;5069894;28;20063;-50
2022/12/25 12:18:21;;;;;;;1.05;0.35;;;20.70;54.00;;;;;;5069738;28;20044;-49
2022/12/25 12:21:02;;;;;;;0.60;0.15;;;20.70;54.60;;;;;;5070190;28;20075;-49
2022/12/25 12:23:34;;;;;;;2.60;0.32;;;20.70;53.90;;;;;;5069886;28;20860;-46
2022/12/25 12:26:02;;;;;;;1.42;0.20;;;20.70;53.80;;;;;;5083685;28;20052;-45
2022/12/25 12:28:37;;;;;;;0.65;0.20;;;20.70;53.70;;;;;;5088735;28;20048;-47
2022/12/25 12:31:06;;;;;;;0.63;0.20;;;20.70;53.60;;;;;;5090020;28;20172;-45
2022/12/25 12:33:37;;;;;;;0.20;0.20;;;20.70;53.60;;;;;;5089740;28;20289;-48
2022/12/25 12:36:05;;;;;;;1.35;0.20;;;20.70;53.80;;;;;;5088231;28;20044;-48
2022/12/25 12:38:35;;;;;;;0.30;0.30;;;20.70;53.60;;;;;;5089972;28;20036;-50
2022/12/25 12:41:04;;;;;;;0.85;0.13;;;20.70;53.70;;;;;;5089311;28;20048;-46
2022/12/25 12:43:35;;;;;;;1.27;0.47;;;20.70;53.60;;;;;;5089667;28;20039;-47
2022/12/25 12:46:06;;;;;;;0.20;0.15;;;20.70;53.60;;;;;;5089121;28;20043;-45
2022/12/25 12:48:43;;;;;;;0.70;0.57;;;20.70;53.60;;;;;;5089652;28;20047;-45
2022/12/25 12:51:12;;;;;;;1.70;0.30;;;20.80;53.60;;;;;;5089616;28;20051;-47
2022/12/25 12:53:42;;;;;;;0.85;0.20;;;20.70;53.60;;;;;;5087835;28;20424;-47
2022/12/25 12:56:15;;;;;;;0.43;0.40;;;20.70;53.60;;;;;;5089269;28;20591;-47
2022/12/25 12:58:47;;;;;;;0.35;0.30;;;20.80;53.80;;;;;;5091269;28;20206;-45
2022/12/25 13:01:34;;;;;;;0.47;0.20;;;20.80;53.70;;;;;;5069128;28;20810;-46
2022/12/25 13:04:40;;;;;;;0.30;0.28;;;20.80;53.60;;;;;;5069223;28;20584;-45
2022/12/25 13:07:19;;;;;;;0.30;0.22;;;20.80;53.30;;;;;;5063980;28;20501;-45
2022/12/25 13:10:02;;;;;;;1.20;0.10;;;20.90;53.20;;;;;;5077880;28;20098;-50
2022/12/25 13:12:29;;;;;;;1.13;0.20;;;20.90;53.10;;;;;;5089145;28;20040;-47
2022/12/25 13:14:58;;;;;;;0.65;0.28;;;21.00;53.10;;;;;;5089336;28;20048;-47
2022/12/25 13:17:26;;;;;;;0.52;0.20;;;21.00;53.00;;;;;;5089406;28;20143;-47
2022/12/25 13:19:57;;;;;;;0.32;0.32;;;21.00;52.80;;;;;;5089040;28;20048;-45
2022/12/25 13:22:29;;;;;;;0.20;0.10;;;21.10;52.80;;;;;;5089332;28;20040;-47
2022/12/25 13:25:00;;;;;;;0.65;0.22;;;21.10;52.80;;;;;;5088742;28;20040;-50
2022/12/25 13:27:29;;;;;;;0.85;0.30;;;21.10;52.60;;;;;;5088638;28;20127;-45
2022/12/25 13:29:57;;;;;;;0.82;0.10;;;21.20;52.60;;;;;;5088911;28;20114;-47
2022/12/25 13:32:26;;;;;;;2.95;0.20;;;21.10;52.60;;;;;;5088797;28;20040;-45
2022/12/25 13:34:54;;;;;;;0.30;0.10;;;21.20;52.50;;;;;;5088888;28;20040;-45
2022/12/25 13:37:23;;;;;;;0.28;0.20;;;21.20;52.30;;;;;;5088776;28;20040;-45
2022/12/25 13:39:52;;;;;;;3.40;0.10;;;21.20;52.30;;;;;;5099088;28;20062;-46
2022/12/25 13:42:23;;;;;;;0.15;0.10;;;21.20;52.30;;;;;;5088709;28;20127;-46
2022/12/25 13:44:53;;;;;;;1.60;0.35;;;21.30;52.20;;;;;;5101754;28;20109;-46
2022/12/25 13:47:24;;;;;;;0.75;0.20;;;21.30;52.80;;;;;;5108812;28;20127;-47
2022/12/25 13:49:52;;;;;;;0.30;0.20;;;21.30;52.20;;;;;;5075736;28;20060;-45
2022/12/25 13:52:22;;;;;;;0.45;0.32;;;21.30;52.10;;;;;;5068148;28;20850;-48
2022/12/25 13:54:54;;;;;;;1.48;0.30;;;21.30;52.00;;;;;;5068257;28;20790;-45
2022/12/25 13:57:26;;;;;;;0.55;0.10;;;21.30;52.00;;;;;;5067145;28;20056;-46
2022/12/25 13:59:54;;;;;;;0.30;0.22;;;21.30;51.90;;;;;;5068001;28;20145;-46
2022/12/25 14:02:27;;;;;;;2.40;0.20;;;21.30;51.90;;;;;;5067874;28;20036;-48
2022/12/25 14:04:54;;;;;;;0.40;0.17;;;21.30;51.90;;;;;;5067871;28;20098;-45
2022/12/25 14:07:23;;;;;;;1.65;0.20;;;21.30;52.00;;;;;;5083817;28;20036;-51
2022/12/25 14:09:54;;;;;;;1.50;0.50;;;21.30;51.90;;;;;;5088004;28;20075;-47
2022/12/25 14:12:24;;;;;;;0.77;0.30;;;21.30;52.00;;;;;;5088106;28;20127;-46
2022/12/25 14:14:52;;;;;;;1.10;0.28;;;21.30;52.00;;;;;;5087801;28;20047;-46
2022/12/25 14:17:20;;;;;;;0.30;0.20;;;21.30;51.90;;;;;;5087725;28;20102;-47
2022/12/25 14:19:56;;;;;;;3.47;0.20;;;21.30;51.80;;;;;;5089920;28;20048;-47
2022/12/25 14:22:25;;;;;;;0.60;0.30;;;21.30;51.90;;;;;;5087472;28;20055;-46
2022/12/25 14:24:52;;;;;;;0.50;0.17;;;21.20;52.20;;;;;;5087982;28;20032;-49
2022/12/25 14:27:22;;;;;;;0.28;0.20;;;21.30;51.70;;;;;;5087795;28;20036;-47
2022/12/25 14:29:52;;;;;;;1.88;0.40;;;21.30;51.70;;;;;;5087663;28;20127;-46
2022/12/25 14:32:22;;;;;;;0.55;0.10;;;21.20;51.70;;;;;;5087693;28;20052;-51
2022/12/25 14:34:53;;;;;;;0.77;0.10;;;21.20;51.70;;;;;;5087720;28;20059;-48
2022/12/25 14:37:23;;;;;;;0.85;0.60;;;21.20;51.70;;;;;;5080713;28;20040;-46
2022/12/25 14:39:59;;;;;;;0.35;0.13;;;21.20;51.70;;;;;;5076795;28;20105;-47
2022/12/25 14:42:29;;;;;;;1.48;0.20;;;21.20;51.70;;;;;;5087772;28;20786;-45